Terminal Aerodrome Forecast
Issued by NWS Charleston, WV

Current Version | Previous Version | Text Only | Print | Product List | Glossary Off
Versions: 1 2 3 4 5 6 7 8 9 10 11 12 13 14 15 16 17 18 19 20 21 22

070
FTUS41 KRLX 240546
TAFEKN
TAF
KEKN 240546Z 2406/2506 00000KT 2SM BR SCT070
      TEMPO 2406/2408 5SM BR
     FM240800 00000KT 2SM BR SCT001
      TEMPO 2408/2411 1/4SM FG BKN001
     FM241100 00000KT 5SM BR SCT070
     FM241200 00000KT P6SM BKN070
     FM242000 31006KT P6SM BKN040
     FM242300 33004KT P6SM BKN025
     FM250400 00000KT P6SM SCT025=

USA.gov is the U.S. government's official web portal to all federal, state and local government web resources and services.